LCRA/AKT METAR and TAF weather

Enter ICAO airport designator
Station Type Date Time Source
LCRA METAR 2022/06/28 09:20 UTC NOAA

LCRA 280920Z 19011KT 9999 FEW050 29/21 Q1006 NOSIG


Station Type Date Time Source
LCRA Decoded METAR 2022/06/28 09:20 UTC NOAA

Akrotiri, Cyprus (LCRA) 34-35N 032-59E 0M
Jun 28, 2022 - 05:20 AM EDT / 2022.06.28 0920 UTC
Wind: from the S (190 degrees) at 13 MPH (11 KT):0
Visibility: greater than 7 mile(s):0
Sky conditions: mostly clear
Temperature: 84 F (29 C)
Dew Point: 69 F (21 C)
Relative Humidity: 62%
Pressure (altimeter): 29.71 in. Hg (1006 hPa)
ob: LCRA 280920Z 19011KT 9999 FEW050 29/21 Q1006 NOSIG
cycle: 9

Station Type Date Time Source
LCRA TAF 2022/06/28 09:43 UTC NOAA

TAF LCRA 280729Z 2809/2903 21010KT 9999 FEW050

Example: see airport list